createdAt,value
2022-08-26T00:01:35.943Z,2.33
2022-08-26T00:04:25.661Z,2.70
2022-08-26T00:07:13.596Z,2.28
2022-08-26T00:10:01.262Z,1.58
2022-08-26T00:12:51.789Z,2.10
2022-08-26T00:15:39.683Z,2.83
2022-08-26T00:18:27.636Z,2.38
2022-08-26T00:21:18.733Z,1.85
2022-08-26T00:24:06.661Z,2.05
2022-08-26T00:26:54.361Z,2.40
2022-08-26T00:29:42.015Z,1.42
2022-08-26T00:32:29.797Z,2.17
2022-08-26T00:35:17.886Z,1.27
2022-08-26T00:38:05.745Z,2.00
2022-08-26T00:40:57.009Z,1.80
2022-08-26T00:43:47.239Z,1.90
2022-08-26T00:46:40.030Z,1.38
2022-08-26T00:49:41.761Z,1.88
2022-08-26T00:52:30.215Z,1.95
2022-08-26T00:55:27.522Z,2.97
2022-08-26T00:58:28.473Z,1.67
2022-08-26T01:01:17.270Z,2.25
2022-08-26T01:04:07.791Z,1.98
2022-08-26T01:06:55.579Z,1.48
2022-08-26T01:09:43.241Z,1.52
2022-08-26T01:12:40.225Z,2.03
2022-08-26T01:15:36.406Z,2.33
2022-08-26T01:18:25.469Z,1.77
2022-08-26T01:21:27.144Z,2.30
2022-08-26T01:24:15.065Z,1.55
2022-08-26T01:27:08.124Z,1.98
2022-08-26T01:29:58.093Z,2.13
2022-08-26T01:32:49.357Z,2.60
2022-08-26T01:35:37.995Z,1.83
2022-08-26T01:38:25.761Z,1.85
2022-08-26T01:41:19.708Z,2.10
2022-08-26T01:44:18.784Z,1.85
2022-08-26T01:47:12.193Z,2.20
2022-08-26T01:50:04.511Z,2.10
2022-08-26T01:52:54.250Z,2.40
2022-08-26T01:55:46.783Z,1.92
2022-08-26T01:58:51.085Z,2.20
2022-08-26T02:01:39.860Z,2.30
2022-08-26T02:04:33.500Z,1.73
2022-08-26T02:07:21.978Z,2.40
2022-08-26T02:10:15.132Z,2.05
2022-08-26T02:13:03.011Z,1.83
2022-08-26T02:15:50.905Z,2.22
2022-08-26T02:18:42.012Z,1.92
2022-08-26T02:21:31.103Z,2.40
2022-08-26T02:24:27.396Z,2.17
2022-08-26T02:27:17.318Z,2.53
2022-08-26T02:30:17.238Z,3.92
2022-08-26T02:33:05.144Z,2.15
2022-08-26T02:35:52.813Z,2.95
2022-08-26T02:38:40.864Z,2.22
2022-08-26T02:41:30.994Z,2.47
2022-08-26T02:44:20.521Z,3.03
2022-08-26T02:47:08.675Z,2.65
2022-08-26T02:49:56.509Z,1.63
2022-08-26T02:52:44.189Z,2.75
2022-08-26T02:55:32.562Z,2.72
2022-08-26T02:58:21.012Z,2.45
2022-08-26T03:01:18.945Z,3.08
2022-08-26T03:04:09.960Z,3.88
2022-08-26T03:06:58.361Z,2.83
2022-08-26T03:09:46.344Z,3.20
2022-08-26T03:12:34.322Z,2.67
2022-08-26T03:15:27.774Z,2.47
2022-08-26T03:18:23.409Z,2.67
2022-08-26T03:21:16.290Z,3.63
2022-08-26T03:24:06.436Z,2.63
2022-08-26T03:26:54.084Z,2.60
2022-08-26T03:30:20.664Z,2.03
2022-08-26T03:33:11.702Z,3.05
2022-08-26T03:36:00.802Z,3.05
2022-08-26T03:38:50.714Z,2.92
2022-08-26T03:41:38.713Z,3.95
2022-08-26T03:44:27.065Z,3.00
2022-08-26T03:47:14.787Z,2.95
2022-08-26T03:50:05.057Z,3.95
2022-08-26T03:52:54.828Z,3.08
2022-08-26T03:55:43.384Z,2.78
2022-08-26T03:58:32.334Z,3.03
2022-08-26T04:01:20.435Z,3.22
2022-08-26T04:04:09.458Z,3.28
2022-08-26T04:07:00.139Z,4.10
2022-08-26T04:09:48.911Z,3.50
2022-08-26T04:12:38.591Z,3.65
2022-08-26T04:15:27.315Z,4.60
2022-08-26T04:18:15.882Z,3.53
2022-08-26T04:21:03.921Z,3.17
2022-08-26T04:23:58.326Z,4.20
2022-08-26T04:26:46.301Z,3.45
2022-08-26T04:29:34.127Z,4.22
2022-08-26T04:32:25.382Z,3.60
2022-08-26T04:35:18.127Z,3.72
2022-08-26T04:38:05.904Z,4.18
2022-08-26T04:40:55.998Z,4.68
2022-08-26T04:43:49.002Z,4.15
2022-08-26T04:46:39.979Z,4.18
2022-08-26T04:49:35.454Z,3.45
2022-08-26T04:52:24.429Z,4.00
2022-08-26T04:55:14.500Z,4.45
2022-08-26T04:58:02.209Z,4.13
2022-08-26T05:00:51.707Z,4.25
2022-08-26T05:03:39.377Z,4.75
2022-08-26T05:06:37.085Z,4.57
2022-08-26T05:09:25.664Z,3.78
2022-08-26T05:12:14.219Z,4.28
2022-08-26T05:15:07.659Z,4.25
2022-08-26T05:17:55.847Z,4.68
2022-08-26T05:20:47.377Z,4.95
2022-08-26T05:23:36.491Z,3.92
2022-08-26T05:26:26.673Z,5.43
2022-08-26T05:29:15.933Z,4.55
2022-08-26T05:32:04.991Z,5.85
2022-08-26T05:34:57.249Z,4.82
2022-08-26T05:37:46.256Z,4.28
2022-08-26T05:40:37.509Z,4.78
2022-08-26T05:43:25.399Z,4.88
2022-08-26T05:46:16.602Z,4.15
2022-08-26T05:49:06.397Z,4.05
2022-08-26T05:52:03.829Z,4.68
2022-08-26T05:54:54.839Z,4.03
2022-08-26T05:57:43.034Z,4.32
2022-08-26T06:00:30.728Z,4.07
2022-08-26T06:03:21.621Z,4.32
2022-08-26T06:06:14.042Z,3.97
2022-08-26T06:09:05.064Z,3.92
2022-08-26T06:11:53.646Z,4.28
2022-08-26T06:14:51.386Z,4.68
2022-08-26T06:17:29.966Z,4.45
2022-08-26T06:20:19.110Z,3.00
2022-08-26T06:23:26.812Z,4.28
2022-08-26T06:26:22.756Z,5.00
2022-08-26T06:29:10.579Z,2.90
2022-08-26T06:32:04.055Z,2.60
2022-08-26T06:34:57.316Z,3.42
2022-08-26T06:37:45.135Z,3.13
2022-08-26T06:40:33.242Z,2.90
2022-08-26T06:43:24.414Z,3.70
2022-08-26T06:46:17.457Z,2.53
2022-08-26T06:49:09.115Z,6.07
2022-08-26T06:51:58.816Z,3.88
2022-08-26T06:54:49.927Z,2.88
2022-08-26T06:57:39.723Z,3.25
2022-08-26T07:00:28.913Z,3.10
2022-08-26T07:03:16.605Z,3.03
2022-08-26T07:06:06.424Z,2.63
2022-08-26T07:09:02.000Z,2.42
2022-08-26T07:11:52.475Z,2.63
2022-08-26T07:14:40.216Z,2.38
2022-08-26T07:17:31.557Z,3.67
2022-08-26T07:20:21.778Z,2.13
2022-08-26T07:23:11.763Z,2.15
2022-08-26T07:26:00.405Z,1.90
2022-08-26T07:28:50.857Z,2.22
2022-08-26T07:31:42.304Z,2.25
2022-08-26T07:34:34.266Z,2.40
2022-08-26T07:37:25.440Z,1.60
2022-08-26T07:40:13.429Z,1.42
2022-08-26T07:43:09.878Z,2.17
2022-08-26T07:46:02.416Z,1.58
2022-08-26T07:48:53.417Z,1.88
2022-08-26T07:51:51.710Z,1.48
2022-08-26T07:54:42.780Z,2.15
2022-08-26T07:57:36.425Z,1.10
2022-08-26T08:00:33.025Z,1.25
2022-08-26T08:03:24.224Z,1.48
2022-08-26T08:06:14.975Z,1.90
2022-08-26T08:09:11.485Z,1.20
2022-08-26T08:11:59.238Z,2.53
2022-08-26T08:14:50.411Z,2.17
2022-08-26T08:17:46.449Z,1.73
2022-08-26T08:20:44.667Z,1.73
2022-08-26T08:26:25.053Z,1.13
2022-08-26T08:29:15.627Z,0.98
2022-08-26T08:32:05.167Z,0.93
2022-08-26T08:34:53.133Z,1.33
2022-08-26T08:37:41.704Z,0.60
2022-08-26T08:40:29.561Z,0.65
2022-08-26T08:43:37.810Z,1.20
2022-08-26T08:46:30.763Z,1.52
2022-08-26T08:49:23.165Z,0.73
2022-08-26T08:52:32.616Z,0.95
2022-08-26T08:55:20.489Z,1.02
2022-08-26T08:58:21.058Z,0.50
2022-08-26T09:01:18.591Z,0.90
2022-08-26T09:04:45.851Z,1.10
2022-08-26T09:07:47.083Z,0.70
2022-08-26T09:10:40.574Z,0.77
2022-08-26T09:13:37.547Z,0.77
2022-08-26T09:16:46.008Z,1.50
2022-08-26T09:20:11.145Z,0.95
2022-08-26T09:23:01.124Z,1.05
2022-08-26T09:25:56.078Z,0.63
2022-08-26T09:28:48.337Z,0.55
2022-08-26T09:31:39.347Z,0.82
2022-08-26T09:34:28.375Z,0.90
2022-08-26T09:40:39.140Z,0.80
2022-08-26T09:43:29.191Z,0.75
2022-08-26T09:46:28.019Z,0.65
2022-08-26T09:49:36.132Z,1.65
2022-08-26T09:52:26.992Z,0.65
2022-08-26T09:55:24.325Z,0.90
2022-08-26T09:58:31.460Z,0.70
2022-08-26T10:01:23.944Z,0.88
2022-08-26T10:04:22.726Z,0.40
2022-08-26T10:07:10.598Z,0.98
2022-08-26T10:10:14.155Z,0.77
2022-08-26T10:13:12.906Z,0.80
2022-08-26T10:16:10.713Z,0.63
2022-08-26T10:19:13.630Z,1.00
2022-08-26T10:22:24.277Z,0.70
2022-08-26T10:25:20.730Z,0.85
2022-08-26T10:28:18.284Z,0.82
2022-08-26T10:31:29.315Z,1.25
2022-08-26T10:34:21.229Z,0.80
2022-08-26T10:37:16.628Z,1.63
2022-08-26T10:40:11.448Z,1.02
2022-08-26T10:43:15.448Z,0.77
2022-08-26T10:46:14.888Z,0.80
2022-08-26T10:49:10.109Z,1.60
2022-08-26T10:52:36.149Z,1.02
2022-08-26T10:55:41.041Z,2.20
2022-08-26T10:58:55.101Z,1.48
2022-08-26T11:02:12.025Z,1.35
2022-08-26T11:05:22.957Z,1.20
2022-08-26T11:08:19.604Z,2.63
2022-08-26T11:11:08.572Z,1.60
2022-08-26T11:14:05.423Z,0.50
2022-08-26T11:16:55.426Z,1.65
2022-08-26T11:20:01.530Z,0.60
2022-08-26T11:22:52.471Z,1.25
2022-08-26T11:26:01.944Z,0.90
2022-08-26T11:28:51.017Z,0.40
2022-08-26T11:31:39.756Z,0.47
2022-08-26T11:34:52.871Z,0.85
2022-08-26T11:37:41.340Z,1.02
2022-08-26T11:40:34.742Z,0.60
2022-08-26T11:43:29.874Z,0.70
2022-08-26T11:46:28.957Z,0.50
2022-08-26T11:49:17.671Z,0.65
2022-08-26T11:52:17.574Z,1.23
2022-08-26T11:55:12.240Z,0.80
2022-08-26T11:58:02.291Z,1.75
2022-08-26T12:01:13.480Z,0.75
2022-08-26T12:04:07.369Z,0.50
2022-08-26T12:06:56.098Z,0.65
2022-08-26T12:10:25.196Z,0.45
2022-08-26T12:13:23.949Z,1.05
2022-08-26T12:16:13.903Z,0.50
2022-08-26T12:19:01.684Z,1.15
2022-08-26T12:21:49.857Z,1.52
2022-08-26T12:24:48.015Z,0.70
2022-08-26T12:27:42.222Z,0.65
2022-08-26T12:30:30.063Z,1.35
2022-08-26T12:33:22.986Z,0.32
2022-08-26T12:36:11.980Z,1.02
2022-08-26T12:39:36.732Z,0.63
2022-08-26T12:42:51.967Z,0.77
2022-08-26T12:45:56.311Z,0.50
2022-08-26T12:48:49.696Z,0.45
2022-08-26T12:51:45.096Z,0.57
2022-08-26T12:54:56.882Z,0.40
2022-08-26T12:57:48.102Z,0.40
2022-08-26T13:00:39.689Z,0.55
2022-08-26T13:03:43.946Z,0.32
2022-08-26T13:06:32.238Z,0.70
2022-08-26T13:09:20.590Z,0.75
2022-08-26T13:12:11.600Z,0.82
2022-08-26T13:15:01.572Z,0.60
2022-08-26T13:17:52.213Z,0.50
2022-08-26T13:20:47.414Z,0.70
2022-08-26T13:23:41.990Z,0.50
2022-08-26T13:26:30.630Z,0.80
2022-08-26T13:29:19.560Z,0.60
2022-08-26T13:32:09.663Z,1.75
2022-08-26T13:34:58.126Z,1.02
2022-08-26T13:37:49.357Z,0.88
2022-08-26T13:40:37.192Z,0.43
2022-08-26T13:43:24.843Z,0.93
2022-08-26T13:46:20.405Z,0.40
2022-08-26T13:49:08.576Z,0.75
2022-08-26T13:51:59.153Z,0.47
2022-08-26T13:54:47.811Z,0.93
2022-08-26T13:57:36.741Z,0.40
2022-08-26T14:00:24.512Z,0.40
2022-08-26T14:03:13.683Z,0.60
2022-08-26T14:06:01.655Z,1.10
2022-08-26T14:08:49.645Z,0.60
2022-08-26T14:11:52.066Z,0.80
2022-08-26T14:14:43.014Z,1.30
2022-08-26T14:17:32.207Z,1.10
2022-08-26T14:20:29.773Z,0.38
2022-08-26T14:23:19.329Z,0.28
2022-08-26T14:26:08.468Z,0.82
2022-08-26T14:28:59.907Z,1.40
2022-08-26T14:31:48.523Z,1.02
2022-08-26T14:34:36.224Z,0.70
2022-08-26T14:37:24.445Z,0.55
2022-08-26T14:40:14.374Z,0.70
2022-08-26T14:43:13.045Z,1.02
2022-08-26T14:46:01.301Z,2.15
2022-08-26T14:48:52.015Z,1.48
2022-08-26T14:51:44.995Z,0.52
2022-08-26T14:54:40.569Z,1.00
2022-08-26T14:57:31.310Z,0.50
2022-08-26T15:00:20.445Z,1.13
2022-08-26T15:03:08.673Z,0.77
2022-08-26T15:05:58.969Z,0.60
2022-08-26T15:08:47.135Z,0.80
2022-08-26T15:11:37.177Z,3.03
2022-08-26T15:14:30.925Z,1.85
2022-08-26T15:17:20.520Z,7.90
2022-08-26T15:20:09.593Z,2.55
2022-08-26T15:22:58.979Z,0.75
2022-08-26T15:25:53.634Z,0.65
2022-08-26T15:28:41.537Z,1.73
2022-08-26T15:31:34.104Z,0.75
2022-08-26T15:34:21.927Z,1.00
2022-08-26T15:37:10.026Z,0.95
2022-08-26T15:39:57.883Z,0.90
2022-08-26T15:42:46.024Z,1.33
2022-08-26T15:45:42.193Z,1.77
2022-08-26T15:48:30.089Z,1.25
2022-08-26T15:51:32.926Z,1.15
2022-08-26T15:54:23.214Z,0.88
2022-08-26T15:57:12.351Z,0.80
2022-08-26T16:00:01.361Z,0.57
2022-08-26T16:02:59.282Z,0.93
2022-08-26T16:05:47.427Z,1.10
2022-08-26T16:08:36.571Z,0.95
2022-08-26T16:11:26.070Z,0.80
2022-08-26T16:14:13.769Z,1.75
2022-08-26T16:17:01.512Z,1.45
2022-08-26T16:19:49.233Z,1.42
2022-08-26T16:22:36.913Z,2.55
2022-08-26T16:25:28.933Z,4.97
2022-08-26T16:28:25.045Z,5.82
2022-08-26T16:31:14.784Z,5.47
2022-08-26T16:34:02.643Z,5.18
2022-08-26T16:36:50.596Z,4.88
2022-08-26T16:39:40.194Z,2.33
2022-08-26T16:42:36.472Z,2.42
2022-08-26T16:45:25.227Z,1.77
2022-08-26T16:48:12.969Z,1.30
2022-08-26T16:51:00.677Z,0.98
2022-08-26T16:53:49.124Z,0.98
2022-08-26T16:56:38.014Z,0.98
2022-08-26T16:59:25.752Z,1.23
2022-08-26T17:02:13.573Z,1.13
2022-08-26T17:05:06.804Z,0.63
2022-08-26T17:07:57.218Z,0.50
2022-08-26T17:10:44.926Z,0.67
2022-08-26T17:13:35.014Z,1.10
2022-08-26T17:16:26.892Z,1.58
2022-08-26T17:19:23.720Z,2.97
2022-08-26T17:22:12.300Z,2.70
2022-08-26T17:25:01.152Z,3.03
2022-08-26T17:27:51.595Z,2.20
2022-08-26T17:30:44.302Z,1.58
2022-08-26T17:33:33.417Z,1.38
2022-08-26T17:36:23.262Z,1.40
2022-08-26T17:39:22.513Z,3.88
2022-08-26T17:42:12.176Z,2.13
2022-08-26T17:45:00.029Z,1.63
2022-08-26T17:47:48.623Z,1.30
2022-08-26T17:50:41.806Z,1.10
2022-08-26T17:53:29.683Z,1.38
2022-08-26T17:56:20.494Z,1.25
2022-08-26T17:59:10.629Z,1.25
2022-08-26T18:01:59.144Z,0.95
2022-08-26T18:04:47.391Z,1.63
2022-08-26T18:07:43.514Z,1.08
2022-08-26T18:10:31.863Z,1.30
2022-08-26T18:13:19.717Z,0.80
2022-08-26T18:16:08.448Z,1.25
2022-08-26T18:18:56.308Z,1.20
2022-08-26T18:21:44.697Z,1.23
2022-08-26T18:24:32.895Z,1.83
2022-08-26T18:27:20.777Z,1.85
2022-08-26T18:30:16.456Z,2.35
2022-08-26T18:33:04.837Z,1.65
2022-08-26T18:35:56.202Z,2.65
2022-08-26T18:38:44.458Z,2.58
2022-08-26T18:41:38.987Z,3.03
2022-08-26T18:44:26.775Z,2.30
2022-08-26T18:47:15.082Z,2.03
2022-08-26T18:50:03.998Z,2.10
2022-08-26T18:52:51.764Z,2.90
2022-08-26T18:55:40.279Z,2.63
2022-08-26T18:58:28.069Z,2.92
2022-08-26T19:01:17.912Z,2.85
2022-08-26T19:04:08.184Z,3.05
2022-08-26T19:06:56.294Z,3.42
2022-08-26T19:09:44.010Z,4.22
2022-08-26T19:12:36.233Z,3.70
2022-08-26T19:15:37.264Z,3.95
2022-08-26T19:18:25.293Z,4.63
2022-08-26T19:21:14.054Z,4.88
2022-08-26T19:24:03.760Z,3.50
2022-08-26T19:26:57.822Z,4.65
2022-08-26T19:29:46.901Z,5.88
2022-08-26T19:32:34.666Z,7.47
2022-08-26T19:35:22.433Z,7.82
2022-08-26T19:38:10.734Z,8.38
2022-08-26T19:40:59.078Z,6.90
2022-08-26T19:43:46.934Z,6.40
2022-08-26T19:46:35.005Z,7.03
2022-08-26T19:49:22.679Z,6.13
2022-08-26T19:52:11.683Z,6.05
2022-08-26T19:55:02.464Z,5.53
2022-08-26T19:57:54.379Z,6.57
2022-08-26T20:00:46.111Z,5.28
2022-08-26T20:06:22.042Z,5.95
2022-08-26T20:09:09.816Z,3.72
2022-08-26T20:11:57.784Z,3.90
2022-08-26T20:14:45.554Z,3.38
2022-08-26T20:17:33.674Z,2.45
2022-08-26T20:20:39.871Z,2.42
2022-08-26T20:23:27.566Z,2.63
2022-08-26T20:26:15.344Z,2.83
2022-08-26T20:29:04.817Z,1.38
2022-08-26T20:31:53.450Z,1.00
2022-08-26T20:34:41.162Z,1.88
2022-08-26T20:37:29.563Z,1.25
2022-08-26T20:40:17.671Z,1.25
2022-08-26T20:43:06.510Z,1.75
2022-08-26T20:45:54.565Z,1.55
2022-08-26T20:48:42.958Z,1.88
2022-08-26T20:51:31.339Z,1.20
2022-08-26T20:54:28.166Z,1.40
2022-08-26T20:57:16.302Z,1.85
2022-08-26T21:00:06.421Z,1.48
2022-08-26T21:03:35.210Z,1.65
2022-08-26T21:06:24.248Z,1.73
2022-08-26T21:09:13.965Z,2.08
2022-08-26T21:12:03.597Z,1.85
2022-08-26T21:14:51.372Z,1.42
2022-08-26T21:17:39.004Z,1.60
2022-08-26T21:20:27.077Z,2.35
2022-08-26T21:23:14.777Z,2.85
2022-08-26T21:26:08.117Z,1.33
2022-08-26T21:28:56.031Z,0.98
2022-08-26T21:31:46.526Z,1.67
2022-08-26T21:34:34.594Z,1.92
2022-08-26T21:37:22.418Z,1.60
2022-08-26T21:40:10.657Z,1.83
2022-08-26T21:42:58.315Z,1.63
2022-08-26T21:45:45.954Z,2.10
2022-08-26T21:48:34.560Z,3.17
2022-08-26T21:51:24.137Z,3.05
2022-08-26T21:54:13.250Z,1.75
2022-08-26T21:57:03.531Z,2.25
2022-08-26T21:59:52.579Z,1.30
2022-08-26T22:02:40.213Z,2.28
2022-08-26T22:05:28.596Z,1.42
2022-08-26T22:08:16.898Z,1.23
2022-08-26T22:11:05.252Z,2.45
2022-08-26T22:13:53.352Z,2.67
2022-08-26T22:16:41.336Z,1.83
2022-08-26T22:19:41.350Z,1.50
2022-08-26T22:22:34.121Z,1.33
2022-08-26T22:25:21.916Z,1.95
2022-08-26T22:28:09.602Z,1.58
2022-08-26T22:30:57.704Z,1.88
2022-08-26T22:33:45.563Z,2.15
2022-08-26T22:36:33.211Z,1.90
2022-08-26T22:39:23.584Z,2.35
2022-08-26T22:42:11.262Z,1.92
2022-08-26T22:44:58.963Z,1.45
2022-08-26T22:47:46.599Z,1.42
2022-08-26T22:50:34.437Z,1.40
2022-08-26T22:53:22.343Z,1.98
2022-08-26T22:56:10.319Z,2.35
2022-08-26T22:58:57.939Z,2.25
2022-08-26T23:01:47.490Z,1.10
2022-08-26T23:04:35.195Z,1.60
2022-08-26T23:07:23.358Z,1.20
2022-08-26T23:10:11.924Z,1.25
2022-08-26T23:12:59.968Z,1.20
2022-08-26T23:15:47.727Z,0.98
2022-08-26T23:18:35.782Z,1.38
2022-08-26T23:21:23.430Z,2.08
2022-08-26T23:24:12.013Z,1.65
2022-08-26T23:30:45.049Z,1.35
2022-08-26T23:36:38.667Z,1.20
2022-08-26T23:39:26.890Z,1.30
2022-08-26T23:42:14.643Z,1.13
2022-08-26T23:45:08.113Z,0.82
2022-08-26T23:47:56.106Z,1.08
2022-08-26T23:51:02.156Z,1.20
2022-08-26T23:53:49.862Z,1.67
2022-08-26T23:56:40.573Z,2.50
2022-08-26T23:59:29.342Z,2.05
